Terminal Aerodrome Forecast
Issued by NWS Des Moines, IA

Home | Current Version | Previous Version | Text Only | Print | Product List | Glossary On
Versions: 1 2 3 4 5 6 7 8 9 10 11 12 13 14 15 16 17 18
000
FTUS43 KDMX 191729
TAFALO
TAF
KALO 191729Z 1918/2018 16018G26KT P6SM SCT200
     FM200000 17013KT P6SM SCT050 BKN120
     FM201200 18011KT P6SM BKN040 OVC090=

USA.gov is the U.S. government's official web portal to all federal, state and local government web resources and services.